Time;durP1;ratioP1;P1;durP2;ratioP2;P2;SDS_P1;SDS_P2;PMS_P1;PMS_P2;Temp;Humidity;BMP_temperature;BMP_pressure;BME280_temperature;BME280_humidity;BME280_pressure;Samples;Min_cycle;Max_cycle;Signal;HPM_P1;HPM_P2
2021/12/18 00:00:32;;;;;;;1.75;0.85;;;23.40;37.90;;;;;;5024866;28;20467;-46
2021/12/18 00:02:58;;;;;;;2.15;1.13;;;23.40;37.90;;;;;;5025870;28;20650;-46
2021/12/18 00:05:24;;;;;;;2.58;1.23;;;23.40;37.90;;;;;;5024586;28;20049;-47
2021/12/18 00:07:50;;;;;;;2.30;1.10;;;23.30;37.90;;;;;;5025751;28;20025;-46
2021/12/18 00:10:20;;;;;;;1.50;0.77;;;23.30;37.90;;;;;;5024528;28;20485;-46
2021/12/18 00:12:49;;;;;;;1.73;1.10;;;23.30;37.90;;;;;;5023372;28;20383;-46
2021/12/18 00:15:20;;;;;;;2.33;1.17;;;23.30;37.90;;;;;;5024593;28;20171;-46
2021/12/18 00:17:46;;;;;;;2.22;0.95;;;23.30;37.80;;;;;;5026200;28;20036;-46
2021/12/18 00:20:14;;;;;;;2.47;1.10;;;23.30;37.80;;;;;;5026093;28;20033;-45
2021/12/18 00:22:41;;;;;;;2.15;1.17;;;23.30;37.80;;;;;;5025259;28;20037;-46
2021/12/18 00:25:07;;;;;;;2.30;1.20;;;23.30;37.80;;;;;;5025634;28;20025;-47
2021/12/18 00:27:32;;;;;;;1.60;0.88;;;23.30;37.80;;;;;;5025521;28;20374;-46
2021/12/18 00:29:58;;;;;;;1.92;1.00;;;23.30;37.80;;;;;;5025537;28;20627;-45
2021/12/18 00:32:24;;;;;;;1.63;1.00;;;23.30;37.80;;;;;;5024604;28;20083;-48
2021/12/18 00:34:49;;;;;;;2.22;1.10;;;23.30;37.80;;;;;;5025423;28;20040;-46
2021/12/18 00:37:15;;;;;;;1.63;0.82;;;23.30;37.80;;;;;;5025029;28;20033;-47
2021/12/18 00:39:51;;;;;;;2.25;1.02;;;23.30;37.80;;;;;;5025169;28;20036;-46
2021/12/18 00:42:25;;;;;;;2.08;0.90;;;23.30;37.70;;;;;;5024392;28;20441;-46
2021/12/18 00:44:51;;;;;;;2.53;1.17;;;23.20;37.60;;;;;;5023970;28;20026;-45
2021/12/18 00:47:17;;;;;;;2.22;0.90;;;23.30;37.70;;;;;;5024738;28;20056;-46
2021/12/18 00:49:43;;;;;;;1.88;1.00;;;23.20;37.70;;;;;;5027482;28;20044;-45
2021/12/18 00:52:08;;;;;;;1.83;1.00;;;23.20;37.70;;;;;;5024089;28;20473;-47
2021/12/18 00:54:35;;;;;;;1.63;0.80;;;23.20;37.60;;;;;;5024402;28;20029;-47
2021/12/18 00:57:02;;;;;;;1.95;1.00;;;23.20;37.70;;;;;;5024381;28;20032;-47
2021/12/18 00:59:28;;;;;;;1.98;1.08;;;23.20;37.60;;;;;;5023964;28;20048;-47
2021/12/18 01:01:54;;;;;;;2.17;1.02;;;23.20;37.70;;;;;;5024101;28;20131;-47
2021/12/18 01:04:20;;;;;;;2.08;1.13;;;23.10;37.60;;;;;;5022128;28;20079;-47
2021/12/18 01:06:47;;;;;;;2.13;1.02;;;23.20;38.30;;;;;;5039851;28;20438;-46
2021/12/18 01:09:13;;;;;;;2.00;1.00;;;23.10;37.60;;;;;;5024583;28;20028;-47
2021/12/18 01:11:46;;;;;;;1.77;0.93;;;23.10;37.60;;;;;;5024456;28;20029;-46
2021/12/18 01:16:55;;;;;;;2.30;1.13;;;23.10;37.60;;;;;;5024656;28;20452;-46
2021/12/18 01:24:50;;;;;;;2.17;1.13;;;23.10;37.60;;;;;;5024649;28;20061;-46
2021/12/18 01:27:16;;;;;;;2.08;1.00;;;23.10;37.60;;;;;;5022592;28;20485;-46
2021/12/18 01:29:42;;;;;;;2.17;1.20;;;23.00;37.50;;;;;;5023746;28;20041;-45
2021/12/18 01:32:08;;;;;;;1.50;0.88;;;23.00;37.50;;;;;;5023237;28;20025;-46
2021/12/18 01:34:35;;;;;;;2.03;1.00;;;23.10;37.60;;;;;;5024174;28;20065;-46
2021/12/18 01:37:01;;;;;;;2.00;1.00;;;23.10;37.60;;;;;;5024767;28;20402;-46
2021/12/18 01:39:27;;;;;;;1.98;1.10;;;23.00;37.50;;;;;;5024373;28;20037;-45
2021/12/18 01:52:39;;;;;;;2.03;0.93;;;23.00;37.50;;;;;;5023412;28;20052;-47
2021/12/18 01:55:06;;;;;;;1.90;1.00;;;23.00;37.50;;;;;;5024753;28;20409;-47
2021/12/18 01:57:32;;;;;;;1.73;0.95;;;23.00;37.50;;;;;;5022430;28;20108;-47
2021/12/18 01:59:58;;;;;;;2.63;1.17;;;23.00;37.50;;;;;;5006547;28;20037;-45
2021/12/18 02:02:24;;;;;;;1.60;0.80;;;23.00;37.50;;;;;;5003292;28;20514;-49
2021/12/18 02:04:50;;;;;;;1.35;0.80;;;23.00;37.50;;;;;;5004823;28;20069;-46
2021/12/18 02:07:16;;;;;;;2.20;1.15;;;22.90;37.60;;;;;;5004660;28;20463;-45
2021/12/18 02:12:09;;;;;;;1.95;1.15;;;22.90;37.60;;;;;;5004439;28;20695;-45
2021/12/18 02:19:58;;;;;;;2.47;1.10;;;22.90;37.60;;;;;;5023958;28;20026;-46
2021/12/18 02:22:26;;;;;;;2.13;1.00;;;22.90;37.60;;;;;;5023643;28;20032;-47
2021/12/18 02:24:52;;;;;;;2.00;1.10;;;22.90;37.60;;;;;;5021278;28;20025;-46
2021/12/18 02:27:18;;;;;;;1.75;0.85;;;22.90;37.60;;;;;;5023413;28;20238;-46
2021/12/18 02:29:44;;;;;;;1.52;0.80;;;22.90;37.60;;;;;;5023592;28;20525;-46
2021/12/18 02:32:11;;;;;;;2.25;1.10;;;22.80;37.50;;;;;;5021892;28;20037;-48
2021/12/18 02:34:40;;;;;;;1.48;0.80;;;22.80;37.50;;;;;;5022157;28;20030;-46
2021/12/18 02:37:09;;;;;;;1.65;0.93;;;22.80;37.50;;;;;;5022519;28;20021;-47
2021/12/18 02:44:34;;;;;;;2.13;1.08;;;22.80;37.60;;;;;;5026457;28;20041;-46
2021/12/18 02:47:00;;;;;;;2.72;1.20;;;22.80;37.60;;;;;;5027412;28;20496;-45
2021/12/18 02:49:27;;;;;;;2.60;1.25;;;22.80;37.60;;;;;;5027146;28;20124;-47
2021/12/18 02:51:53;;;;;;;1.58;0.88;;;22.80;37.60;;;;;;5028812;28;20075;-45
2021/12/18 02:54:19;;;;;;;1.75;0.98;;;22.80;37.70;;;;;;5026464;28;20038;-47
2021/12/18 02:56:44;;;;;;;2.03;1.08;;;22.80;37.60;;;;;;5026607;28;20435;-45
2021/12/18 02:59:10;;;;;;;1.95;1.00;;;22.80;37.90;;;;;;5015562;28;20084;-46
2021/12/18 03:01:38;;;;;;;2.65;1.20;;;22.80;37.60;;;;;;5006166;28;20045;-45
2021/12/18 03:04:24;;;;;;;1.88;1.00;;;22.70;37.60;;;;;;5006259;28;20038;-45
2021/12/18 03:06:54;;;;;;;1.70;0.95;;;22.80;37.60;;;;;;5006868;28;20036;-45
2021/12/18 03:25:21;;;;;;;2.47;1.10;;;22.70;37.70;;;;;;5027073;28;20055;-46
2021/12/18 03:27:47;;;;;;;1.20;0.80;;;22.70;37.70;;;;;;5026499;28;20034;-49
2021/12/18 03:30:13;;;;;;;1.58;0.85;;;22.70;37.70;;;;;;5025737;28;20359;-44
2021/12/18 03:32:39;;;;;;;2.05;1.10;;;22.70;37.70;;;;;;5024792;28;20022;-45
2021/12/18 03:35:06;;;;;;;1.65;0.90;;;22.60;37.60;;;;;;5026702;28;20064;-46
2021/12/18 03:37:34;;;;;;;2.30;1.15;;;22.60;37.70;;;;;;5026288;28;20029;-46
2021/12/18 03:40:00;;;;;;;1.80;1.00;;;22.70;38.30;;;;;;5026468;28;20040;-46
2021/12/18 03:42:26;;;;;;;1.88;1.00;;;22.70;37.70;;;;;;5025275;28;20401;-47
2021/12/18 03:44:51;;;;;;;1.83;0.90;;;22.60;37.70;;;;;;5026259;28;20253;-47
2021/12/18 03:47:17;;;;;;;2.13;0.93;;;22.60;37.70;;;;;;5026305;28;20412;-47
2021/12/18 03:49:43;;;;;;;2.10;1.00;;;22.60;37.70;;;;;;5028946;28;20025;-46
2021/12/18 03:52:09;;;;;;;1.92;1.00;;;22.60;38.30;;;;;;5024578;28;20053;-46
2021/12/18 03:54:35;;;;;;;2.42;0.90;;;22.60;37.70;;;;;;5023353;28;20025;-46
2021/12/18 03:57:01;;;;;;;1.83;0.93;;;22.60;37.70;;;;;;5025643;28;20056;-46
2021/12/18 03:59:27;;;;;;;1.40;0.85;;;22.60;37.70;;;;;;5024914;28;20058;-46
2021/12/18 04:01:53;;;;;;;1.58;0.80;;;22.60;37.80;;;;;;5025947;28;20528;-45
2021/12/18 04:04:18;;;;;;;1.75;0.95;;;22.60;38.00;;;;;;5025162;28;20053;-45
2021/12/18 04:06:45;;;;;;;2.03;1.10;;;22.60;38.00;;;;;;5025035;28;20747;-47
2021/12/18 04:09:11;;;;;;;2.63;1.10;;;22.60;38.00;;;;;;5025359;28;20044;-46
2021/12/18 04:11:40;;;;;;;1.88;1.00;;;22.60;38.00;;;;;;5025470;28;20205;-47
2021/12/18 04:14:07;;;;;;;1.98;1.10;;;22.50;38.00;;;;;;5025374;28;20104;-46
2021/12/18 04:16:33;;;;;;;2.00;1.00;;;22.60;38.00;;;;;;5025748;28;20141;-46
2021/12/18 04:19:01;;;;;;;1.63;0.95;;;22.50;38.00;;;;;;5025594;28;20060;-45
2021/12/18 04:21:31;;;;;;;1.85;1.08;;;22.50;38.10;;;;;;5025661;28;20041;-46
2021/12/18 04:23:57;;;;;;;2.20;1.02;;;22.50;38.10;;;;;;5025015;28;20463;-47
2021/12/18 04:26:23;;;;;;;2.00;1.10;;;22.50;38.70;;;;;;5025489;28;20038;-46
2021/12/18 04:28:49;;;;;;;2.55;1.20;;;22.50;38.20;;;;;;5025518;28;20673;-46
2021/12/18 04:31:16;;;;;;;2.10;1.17;;;22.50;38.00;;;;;;5025638;28;20026;-46
2021/12/18 04:33:42;;;;;;;1.63;0.95;;;22.50;38.00;;;;;;5025048;28;20076;-46
2021/12/18 04:36:07;;;;;;;2.28;1.10;;;22.50;37.90;;;;;;5025011;28;20026;-46
2021/12/18 04:38:34;;;;;;;2.13;1.08;;;22.50;37.90;;;;;;5024903;28;20084;-45
2021/12/18 04:41:00;;;;;;;1.98;1.05;;;22.50;37.90;;;;;;5025577;28;20029;-46
2021/12/18 04:43:25;;;;;;;1.83;0.82;;;22.50;37.90;;;;;;5024745;28;20040;-46
2021/12/18 04:45:51;;;;;;;2.42;1.30;;;22.50;37.90;;;;;;5025203;28;20037;-46
2021/12/18 04:48:17;;;;;;;1.40;0.80;;;22.50;37.90;;;;;;5025500;28;20160;-45
2021/12/18 04:50:43;;;;;;;1.70;0.80;;;22.50;37.90;;;;;;5027869;28;20029;-48
2021/12/18 04:53:10;;;;;;;1.85;0.90;;;22.50;37.90;;;;;;5023487;28;20041;-45
2021/12/18 04:55:35;;;;;;;2.00;0.90;;;22.50;37.90;;;;;;5024961;28;20037;-46
2021/12/18 04:58:01;;;;;;;1.85;0.90;;;22.50;37.90;;;;;;5024427;28;20040;-46
2021/12/18 05:00:37;;;;;;;2.33;1.05;;;22.50;37.90;;;;;;5005903;28;20080;-46
2021/12/18 05:03:05;;;;;;;1.60;0.80;;;22.40;37.80;;;;;;5004185;28;20030;-46
2021/12/18 05:05:32;;;;;;;2.00;0.85;;;22.50;37.90;;;;;;5005265;28;20474;-47
2021/12/18 05:07:58;;;;;;;1.85;0.95;;;22.40;37.80;;;;;;5023997;28;20044;-47
2021/12/18 05:10:23;;;;;;;1.67;0.90;;;22.40;37.80;;;;;;5023874;28;20307;-46
2021/12/18 05:12:49;;;;;;;1.88;0.93;;;22.40;37.80;;;;;;5023978;28;20022;-46
2021/12/18 05:15:14;;;;;;;1.88;0.80;;;22.40;37.80;;;;;;5024784;28;20053;-45
2021/12/18 05:17:40;;;;;;;1.55;0.90;;;22.40;37.90;;;;;;5024707;28;20029;-45
2021/12/18 05:20:07;;;;;;;1.85;0.80;;;22.40;37.90;;;;;;5023053;28;20466;-46
2021/12/18 05:22:33;;;;;;;1.38;0.80;;;22.40;37.90;;;;;;5023759;28;20369;-45
2021/12/18 05:24:59;;;;;;;1.80;1.00;;;22.40;37.80;;;;;;5023666;28;20397;-47
2021/12/18 05:27:24;;;;;;;1.95;1.05;;;22.40;37.80;;;;;;5023368;28;20088;-46
2021/12/18 05:29:50;;;;;;;2.03;1.02;;;22.30;37.90;;;;;;5022607;28;20033;-46
2021/12/18 05:32:16;;;;;;;2.35;1.20;;;22.40;37.80;;;;;;5023110;28;20033;-46
2021/12/18 05:34:42;;;;;;;2.63;1.20;;;22.30;37.80;;;;;;5024582;28;20026;-46
2021/12/18 05:37:18;;;;;;;2.17;1.10;;;22.30;37.90;;;;;;5023376;28;20025;-46
2021/12/18 05:39:46;;;;;;;1.42;0.80;;;22.40;37.90;;;;;;5006301;28;20025;-46
2021/12/18 05:42:12;;;;;;;2.53;1.10;;;22.30;37.90;;;;;;5022437;28;20029;-47
2021/12/18 05:44:38;;;;;;;3.05;1.40;;;22.30;37.90;;;;;;5012721;28;20025;-46
2021/12/18 05:47:04;;;;;;;2.15;1.25;;;22.30;37.90;;;;;;5002455;28;20278;-47
2021/12/18 05:49:30;;;;;;;2.22;1.20;;;22.30;37.90;;;;;;5006774;28;20034;-47
2021/12/18 05:51:55;;;;;;;2.72;1.20;;;22.30;37.80;;;;;;5022466;28;20095;-47
2021/12/18 05:54:21;;;;;;;2.40;0.95;;;22.30;37.90;;;;;;5023473;28;20819;-47
2021/12/18 05:56:47;;;;;;;2.40;1.13;;;22.30;37.90;;;;;;5022741;28;20506;-46
2021/12/18 05:59:13;;;;;;;2.10;1.10;;;22.30;37.90;;;;;;5023914;28;20022;-47
2021/12/18 06:01:38;;;;;;;2.33;1.25;;;22.30;38.00;;;;;;5022887;28;20037;-47
2021/12/18 06:04:04;;;;;;;2.90;1.30;;;22.30;37.90;;;;;;5023586;28;20073;-46
2021/12/18 06:06:31;;;;;;;2.70;1.27;;;22.30;37.90;;;;;;5024231;28;20397;-45
2021/12/18 06:08:57;;;;;;;3.38;1.40;;;22.30;38.00;;;;;;5022435;28;20411;-45
2021/12/18 06:11:26;;;;;;;3.40;1.50;;;22.30;38.00;;;;;;5024012;28;20095;-46
2021/12/18 06:13:52;;;;;;;2.95;1.27;;;22.30;38.10;;;;;;5015655;28;20044;-46
2021/12/18 06:16:19;;;;;;;3.22;1.50;;;22.30;38.20;;;;;;5027781;28;20559;-45
2021/12/18 06:18:49;;;;;;;2.42;1.33;;;22.30;38.30;;;;;;5027815;28;20121;-46
2021/12/18 06:21:17;;;;;;;3.60;1.80;;;22.30;38.30;;;;;;5027511;28;20053;-46
2021/12/18 06:23:47;;;;;;;3.47;1.45;;;22.30;38.30;;;;;;5026617;28;20041;-45
2021/12/18 06:26:15;;;;;;;3.33;1.83;;;22.30;38.30;;;;;;5027150;28;20037;-46
2021/12/18 06:28:41;;;;;;;3.80;1.70;;;22.30;38.40;;;;;;5026897;28;20021;-46
2021/12/18 06:31:07;;;;;;;3.00;1.67;;;22.30;39.10;;;;;;5027114;28;20030;-46
2021/12/18 06:33:33;;;;;;;3.40;1.60;;;22.40;38.40;;;;;;5026470;28;20083;-47
2021/12/18 06:35:59;;;;;;;3.08;1.67;;;22.40;38.50;;;;;;5024517;28;20030;-45
2021/12/18 06:38:25;;;;;;;2.72;1.48;;;22.50;38.60;;;;;;5025647;28;20033;-47
2021/12/18 06:40:51;;;;;;;4.30;1.98;;;22.50;38.70;;;;;;5023053;28;20021;-45
2021/12/18 06:43:17;;;;;;;3.70;2.00;;;22.60;38.70;;;;;;5025400;28;20151;-46
2021/12/18 06:45:43;;;;;;;3.55;1.88;;;22.60;38.80;;;;;;5026513;28;20037;-46
2021/12/18 06:48:09;;;;;;;4.68;2.40;;;22.70;38.80;;;;;;5026536;28;20661;-47
2021/12/18 06:50:37;;;;;;;3.88;2.20;;;22.80;38.70;;;;;;5037189;28;20017;-47
2021/12/18 06:53:04;;;;;;;3.88;2.00;;;22.90;38.60;;;;;;5026931;28;20053;-46
2021/12/18 06:55:29;;;;;;;3.70;2.05;;;22.90;38.50;;;;;;5025038;28;20254;-47
2021/12/18 06:57:56;;;;;;;3.47;1.95;;;23.10;38.60;;;;;;5026256;28;20083;-48
2021/12/18 07:00:22;;;;;;;4.00;2.47;;;23.10;38.50;;;;;;5025578;28;20710;-46
2021/12/18 07:02:48;;;;;;;4.03;2.08;;;23.20;38.40;;;;;;5026206;28;20514;-45
2021/12/18 07:05:15;;;;;;;3.25;1.95;;;23.30;38.30;;;;;;5025339;28;20025;-47
2021/12/18 07:07:41;;;;;;;3.70;2.08;;;23.30;38.20;;;;;;5025557;28;20026;-47
2021/12/18 07:10:09;;;;;;;3.35;2.10;;;23.40;38.10;;;;;;5026859;28;20040;-46
2021/12/18 07:12:35;;;;;;;3.13;1.67;;;23.50;38.00;;;;;;5025120;28;20447;-47
2021/12/18 07:15:02;;;;;;;3.25;2.05;;;23.60;38.00;;;;;;5025877;28;20584;-46
2021/12/18 07:17:27;;;;;;;2.90;1.63;;;23.70;38.00;;;;;;5016445;28;20374;-47
2021/12/18 07:19:53;;;;;;;3.50;2.00;;;23.70;37.90;;;;;;5024863;28;20033;-46
2021/12/18 07:22:19;;;;;;;3.67;2.20;;;23.80;37.80;;;;;;5025084;28;20455;-48
2021/12/18 07:24:45;;;;;;;4.22;2.40;;;23.90;37.80;;;;;;5024829;28;20021;-45
2021/12/18 07:27:10;;;;;;;3.42;2.10;;;23.90;37.70;;;;;;5024318;28;20063;-46
2021/12/18 07:29:36;;;;;;;4.28;2.05;;;24.00;37.40;;;;;;5022361;28;20026;-46
2021/12/18 07:32:02;;;;;;;3.85;2.10;;;24.10;37.60;;;;;;5019743;28;20029;-46
2021/12/18 07:34:28;;;;;;;3.83;2.25;;;24.10;38.10;;;;;;5022221;28;20040;-45
2021/12/18 07:36:53;;;;;;;4.65;2.28;;;24.20;37.80;;;;;;5022548;28;20027;-45
2021/12/18 07:39:19;;;;;;;4.20;2.63;;;24.30;37.90;;;;;;5024265;28;20034;-45
2021/12/18 07:41:45;;;;;;;6.53;2.58;;;24.30;37.70;;;;;;5024395;28;20017;-49
2021/12/18 07:44:11;;;;;;;7.32;3.38;;;24.40;38.40;;;;;;5021541;28;20381;-45
2021/12/18 07:46:38;;;;;;;7.25;3.03;;;24.40;38.30;;;;;;5024550;28;20195;-45
2021/12/18 07:49:08;;;;;;;7.38;2.75;;;24.50;38.50;;;;;;5024554;28;20116;-45
2021/12/18 07:51:34;;;;;;;7.75;2.60;;;24.50;38.30;;;;;;5036745;28;20033;-45
2021/12/18 07:54:01;;;;;;;9.20;3.08;;;24.60;38.10;;;;;;5025030;28;20018;-45
2021/12/18 07:56:26;;;;;;;5.22;3.03;;;24.60;37.90;;;;;;5025201;28;20551;-45
2021/12/18 07:58:53;;;;;;;6.68;2.72;;;24.60;37.70;;;;;;5025202;28;20072;-45
2021/12/18 08:01:18;;;;;;;8.38;2.65;;;24.70;37.70;;;;;;5025874;28;20179;-45
2021/12/18 08:03:44;;;;;;;5.93;2.65;;;24.70;37.50;;;;;;5024741;28;20109;-45
2021/12/18 08:06:10;;;;;;;4.82;2.38;;;24.70;37.50;;;;;;5025770;28;20066;-45
2021/12/18 08:08:37;;;;;;;5.43;2.58;;;24.80;37.30;;;;;;5024566;28;20024;-45
2021/12/18 08:11:03;;;;;;;4.32;2.45;;;24.80;37.30;;;;;;5025193;28;20021;-44
2021/12/18 08:13:29;;;;;;;4.05;2.28;;;24.70;37.10;;;;;;5024360;28;20104;-45
2021/12/18 08:15:55;;;;;;;4.97;2.45;;;24.80;37.30;;;;;;5024170;28;20534;-45
2021/12/18 08:18:21;;;;;;;3.85;2.22;;;24.80;37.20;;;;;;5024937;28;20034;-45
2021/12/18 08:20:47;;;;;;;4.97;2.60;;;24.80;37.20;;;;;;5024395;28;20073;-44
2021/12/18 08:23:13;;;;;;;3.40;2.13;;;24.80;37.10;;;;;;5021652;28;20119;-44
2021/12/18 08:25:39;;;;;;;2.85;1.83;;;24.80;37.10;;;;;;5023602;28;20040;-45
2021/12/18 08:28:06;;;;;;;4.50;2.40;;;24.80;37.00;;;;;;5020786;28;20029;-44
2021/12/18 08:30:35;;;;;;;5.43;2.17;;;24.90;37.00;;;;;;5011587;28;20034;-44
2021/12/18 08:33:01;;;;;;;4.13;2.50;;;24.90;36.90;;;;;;5024061;28;20496;-45
2021/12/18 08:35:29;;;;;;;3.60;1.88;;;24.90;36.90;;;;;;5024034;28;20087;-45
2021/12/18 08:37:57;;;;;;;2.67;1.70;;;24.90;36.80;;;;;;5024007;28;20036;-45
2021/12/18 08:40:24;;;;;;;4.90;2.03;;;24.90;36.70;;;;;;5023866;28;20018;-45
2021/12/18 08:42:50;;;;;;;4.40;2.50;;;24.90;36.70;;;;;;5021229;28;20037;-44
2021/12/18 08:45:16;;;;;;;6.15;2.50;;;24.90;36.60;;;;;;5009700;28;20034;-44
2021/12/18 08:47:43;;;;;;;4.63;2.13;;;24.90;36.40;;;;;;5013387;28;20068;-45
2021/12/18 08:50:10;;;;;;;3.85;2.17;;;25.00;36.60;;;;;;5030516;28;20025;-45
2021/12/18 08:52:37;;;;;;;6.30;2.53;;;25.00;36.50;;;;;;5027916;28;20092;-45
2021/12/18 08:55:04;;;;;;;3.63;1.88;;;25.00;36.20;;;;;;5022421;28;20029;-44
2021/12/18 08:57:30;;;;;;;4.00;2.22;;;25.00;36.30;;;;;;5022086;28;20030;-45
2021/12/18 08:59:56;;;;;;;3.40;1.92;;;25.00;36.20;;;;;;5018529;28;20034;-44
2021/12/18 09:02:22;;;;;;;4.63;2.00;;;25.00;36.60;;;;;;5014419;28;20041;-44
2021/12/18 09:04:48;;;;;;;4.15;1.95;;;25.00;36.30;;;;;;5017016;28;20052;-46
2021/12/18 09:07:14;;;;;;;4.07;1.90;;;25.00;36.50;;;;;;5013197;28;20033;-44
2021/12/18 09:09:40;;;;;;;2.95;1.58;;;25.00;36.40;;;;;;5021101;28;20036;-44
2021/12/18 09:12:09;;;;;;;4.47;2.08;;;25.00;36.50;;;;;;5020771;28;20433;-44
2021/12/18 09:14:34;;;;;;;3.58;2.15;;;25.00;36.80;;;;;;5018587;28;20029;-44
2021/12/18 09:17:01;;;;;;;4.47;2.33;;;25.00;36.60;;;;;;5020524;28;20025;-44
2021/12/18 09:19:27;;;;;;;3.42;1.98;;;25.00;36.40;;;;;;5018695;28;20036;-44
2021/12/18 09:21:52;;;;;;;4.28;2.50;;;25.00;36.30;;;;;;5013950;28;20037;-44
2021/12/18 09:24:20;;;;;;;4.07;2.53;;;25.00;36.30;;;;;;5022339;28;20037;-44
2021/12/18 09:26:46;;;;;;;3.80;2.20;;;25.00;36.30;;;;;;5012200;28;20042;-44
2021/12/18 09:29:12;;;;;;;5.07;2.35;;;25.00;36.30;;;;;;5019315;28;20669;-44
2021/12/18 09:31:38;;;;;;;5.38;2.60;;;25.00;36.70;;;;;;5019149;28;20097;-44
2021/12/18 09:34:04;;;;;;;3.58;2.13;;;25.00;36.80;;;;;;5017757;28;20032;-43
2021/12/18 09:36:29;;;;;;;5.30;2.60;;;25.00;36.60;;;;;;5011602;28;20045;-44
2021/12/18 09:38:55;;;;;;;3.40;2.20;;;25.00;36.40;;;;;;5004673;28;20414;-44
2021/12/18 09:41:21;;;;;;;4.13;2.17;;;25.00;36.40;;;;;;5022385;28;20709;-44
2021/12/18 09:43:47;;;;;;;4.05;2.50;;;25.00;36.10;;;;;;5021052;28;20052;-44
2021/12/18 09:46:15;;;;;;;4.85;2.50;;;25.00;36.00;;;;;;5021581;28;20060;-45
2021/12/18 09:48:43;;;;;;;3.97;2.22;;;25.00;36.10;;;;;;5023168;28;20100;-44
2021/12/18 09:51:18;;;;;;;4.15;2.30;;;25.00;35.80;;;;;;5038181;28;20033;-44
2021/12/18 09:53:44;;;;;;;4.65;2.85;;;25.00;35.60;;;;;;5026620;28;20021;-44
2021/12/18 09:56:10;;;;;;;3.63;2.38;;;25.00;35.40;;;;;;5025155;28;20143;-44
2021/12/18 09:58:35;;;;;;;5.07;2.75;;;25.00;35.70;;;;;;5026128;28;20088;-44
2021/12/18 10:01:02;;;;;;;4.32;2.50;;;25.00;35.70;;;;;;5025547;28;20041;-44
2021/12/18 10:03:45;;;;;;;4.20;2.60;;;25.00;35.70;;;;;;5025793;28;20540;-44
2021/12/18 10:06:39;;;;;;;3.67;2.22;;;25.00;35.80;;;;;;5026686;28;20452;-44
2021/12/18 10:09:28;;;;;;;4.03;2.08;;;25.00;35.80;;;;;;5026932;28;20026;-44
2021/12/18 10:11:55;;;;;;;3.85;1.75;;;25.00;35.90;;;;;;5025779;28;20053;-44
2021/12/18 10:14:37;;;;;;;4.07;2.35;;;25.00;35.90;;;;;;5004471;28;20025;-44
2021/12/18 10:17:04;;;;;;;3.55;2.10;;;25.00;35.80;;;;;;5006802;28;20762;-44
2021/12/18 10:19:36;;;;;;;3.85;2.13;;;25.00;35.70;;;;;;5006770;28;20025;-44
2021/12/18 10:22:09;;;;;;;4.30;1.95;;;25.00;35.80;;;;;;5016799;28;20485;-43
2021/12/18 10:24:38;;;;;;;3.95;2.00;;;25.00;35.80;;;;;;5024715;28;20041;-44
2021/12/18 10:27:22;;;;;;;3.50;2.10;;;25.00;35.80;;;;;;5039937;28;20725;-43
2021/12/18 10:29:50;;;;;;;3.92;2.15;;;25.00;35.90;;;;;;5024170;28;20033;-43
2021/12/18 10:32:18;;;;;;;3.65;2.10;;;25.00;35.90;;;;;;5024907;28;20483;-47
2021/12/18 10:34:53;;;;;;;7.95;2.63;;;25.00;35.90;;;;;;5025102;28;20132;-44
2021/12/18 10:37:25;;;;;;;4.60;2.05;;;25.00;35.80;;;;;;5025167;28;20024;-44
2021/12/18 10:39:50;;;;;;;3.67;2.20;;;25.00;36.10;;;;;;5025259;28;20032;-44
2021/12/18 10:42:19;;;;;;;3.70;2.08;;;25.00;36.40;;;;;;5025081;28;20100;-44
2021/12/18 10:45:19;;;;;;;4.65;2.13;;;25.00;36.50;;;;;;5017273;28;20437;-44
2021/12/18 10:47:57;;;;;;;4.40;2.50;;;24.90;36.60;;;;;;5020117;28;20423;-45
2021/12/18 10:50:26;;;;;;;3.83;2.47;;;24.90;37.00;;;;;;5033694;28;20025;-44
2021/12/18 10:53:02;;;;;;;4.20;2.30;;;24.90;37.30;;;;;;5026904;28;20013;-44
2021/12/18 10:55:31;;;;;;;4.15;1.98;;;24.90;37.60;;;;;;5018105;28;20040;-44
2021/12/18 10:57:57;;;;;;;7.25;2.50;;;24.90;37.80;;;;;;5026180;28;20021;-44
2021/12/18 11:00:38;;;;;;;3.85;2.13;;;24.90;38.00;;;;;;5026310;28;20044;-44
2021/12/18 11:03:14;;;;;;;3.55;2.08;;;24.90;38.20;;;;;;5025146;28;20092;-44
2021/12/18 11:05:40;;;;;;;4.10;2.15;;;24.90;38.50;;;;;;5025822;28;20021;-43
2021/12/18 11:08:08;;;;;;;4.05;2.25;;;24.90;38.80;;;;;;5026057;28;20082;-44
2021/12/18 11:10:53;;;;;;;4.00;2.25;;;24.90;39.20;;;;;;5041252;28;20108;-44
2021/12/18 11:16:05;;;;;;;6.05;2.78;;;24.90;39.50;;;;;;5025394;28;20116;-44
2021/12/18 11:18:33;;;;;;;6.25;3.05;;;24.90;39.30;;;;;;5025885;28;20040;-44
2021/12/18 11:20:59;;;;;;;5.72;2.97;;;25.00;38.80;;;;;;5024309;28;20037;-44
2021/12/18 11:23:42;;;;;;;6.05;3.60;;;25.00;38.50;;;;;;5025440;28;20405;-44
2021/12/18 11:26:13;;;;;;;5.40;3.25;;;25.00;38.20;;;;;;5023871;28;20035;-44
2021/12/18 11:28:43;;;;;;;5.70;3.20;;;24.90;37.90;;;;;;5025292;28;20039;-44
2021/12/18 11:31:09;;;;;;;6.20;3.33;;;24.90;37.80;;;;;;5024339;28;20036;-44
2021/12/18 11:33:35;;;;;;;6.18;3.25;;;25.00;37.50;;;;;;5023873;28;20109;-44
2021/12/18 11:36:04;;;;;;;7.30;3.38;;;24.90;37.40;;;;;;5025826;28;20104;-44
2021/12/18 11:38:32;;;;;;;6.15;3.33;;;24.90;37.10;;;;;;5024914;28;20117;-44
2021/12/18 11:40:58;;;;;;;5.82;3.47;;;24.90;37.10;;;;;;5025942;28;20111;-44
2021/12/18 11:43:39;;;;;;;6.75;3.50;;;24.90;37.00;;;;;;5025144;28;20108;-43
2021/12/18 11:46:28;;;;;;;8.85;3.53;;;24.90;36.80;;;;;;5025659;28;20037;-45
2021/12/18 11:48:55;;;;;;;8.18;2.78;;;24.90;36.90;;;;;;5024944;28;20033;-44
2021/12/18 11:51:21;;;;;;;5.97;3.00;;;24.90;37.00;;;;;;5036174;28;20021;-44
2021/12/18 11:53:47;;;;;;;5.32;2.78;;;25.00;37.00;;;;;;5024714;28;20029;-43
2021/12/18 11:56:14;;;;;;;4.60;2.50;;;24.90;37.00;;;;;;5024762;28;20752;-44
2021/12/18 11:58:48;;;;;;;6.22;3.55;;;24.90;36.60;;;;;;5023448;28;20088;-44
2021/12/18 12:01:18;;;;;;;4.95;2.55;;;24.90;36.40;;;;;;5022961;28;20033;-44
2021/12/18 12:03:50;;;;;;;5.90;3.13;;;24.90;36.50;;;;;;5022494;28;20033;-44
2021/12/18 12:06:35;;;;;;;5.22;2.67;;;24.90;36.70;;;;;;5024856;28;20112;-44
2021/12/18 12:11:58;;;;;;;4.88;2.40;;;24.90;37.30;;;;;;5023991;28;20028;-44
2021/12/18 12:14:30;;;;;;;6.00;2.53;;;24.90;37.60;;;;;;5024896;28;20088;-44
2021/12/18 12:17:01;;;;;;;4.93;2.38;;;25.00;37.80;;;;;;5025686;28;20037;-44
2021/12/18 12:19:33;;;;;;;3.60;1.90;;;24.90;38.10;;;;;;5024572;28;20063;-44
2021/12/18 12:22:00;;;;;;;6.37;2.70;;;25.00;38.20;;;;;;5025150;28;20031;-44
2021/12/18 12:24:29;;;;;;;3.88;2.45;;;25.00;38.60;;;;;;5022741;28;20088;-43
2021/12/18 12:27:15;;;;;;;4.45;2.42;;;25.00;38.80;;;;;;5024521;28;20025;-45
2021/12/18 12:29:46;;;;;;;4.85;2.60;;;25.00;39.00;;;;;;5024783;28;20083;-44
2021/12/18 12:32:12;;;;;;;4.03;2.05;;;25.00;39.30;;;;;;5022668;28;20532;-44
2021/12/18 12:34:38;;;;;;;4.63;2.70;;;25.00;39.60;;;;;;5024889;28;20040;-43
2021/12/18 12:37:22;;;;;;;4.28;2.42;;;25.00;40.30;;;;;;5024877;28;20072;-44
2021/12/18 12:40:11;;;;;;;4.13;2.45;;;25.00;40.60;;;;;;5024735;28;20068;-44
2021/12/18 12:42:39;;;;;;;5.32;2.70;;;25.00;42.10;;;;;;5025467;28;20662;-44
2021/12/18 12:45:16;;;;;;;5.15;2.90;;;25.00;43.90;;;;;;5023443;28;20049;-44
2021/12/18 12:47:53;;;;;;;4.90;2.72;;;25.00;43.70;;;;;;5023346;28;20025;-44
2021/12/18 12:50:19;;;;;;;5.50;3.60;;;25.00;44.20;;;;;;5021371;28;20017;-44
2021/12/18 12:52:56;;;;;;;4.28;2.47;;;25.00;45.20;;;;;;5023527;28;20040;-43
2021/12/18 12:55:26;;;;;;;4.47;2.58;;;25.00;44.70;;;;;;5022748;28;20498;-44
2021/12/18 12:57:57;;;;;;;3.70;2.30;;;25.00;43.70;;;;;;5022714;28;20025;-43
2021/12/18 13:00:23;;;;;;;4.38;2.30;;;25.00;43.30;;;;;;5012475;28;20121;-44
2021/12/18 13:02:50;;;;;;;4.07;2.30;;;25.00;43.40;;;;;;5003670;28;20855;-44
2021/12/18 13:05:16;;;;;;;4.80;2.40;;;25.00;43.10;;;;;;5002482;28;20699;-44
2021/12/18 13:08:02;;;;;;;4.15;2.08;;;25.00;43.10;;;;;;5004319;28;20030;-44
2021/12/18 13:10:27;;;;;;;3.90;2.05;;;25.00;42.80;;;;;;5003981;28;20057;-44
2021/12/18 13:12:55;;;;;;;4.13;2.33;;;25.00;42.80;;;;;;5003798;28;20083;-44
2021/12/18 13:15:21;;;;;;;4.30;1.85;;;25.00;42.60;;;;;;5013636;28;20044;-44
2021/12/18 13:17:54;;;;;;;3.70;2.20;;;25.00;42.40;;;;;;5023193;28;20063;-44
2021/12/18 13:20:19;;;;;;;4.93;2.22;;;25.00;42.30;;;;;;5024014;28;20037;-44
2021/12/18 13:22:53;;;;;;;3.83;2.17;;;25.00;43.00;;;;;;5022397;28;20087;-43
2021/12/18 13:25:20;;;;;;;3.83;2.22;;;25.00;42.30;;;;;;5022071;28;20037;-43
2021/12/18 13:28:03;;;;;;;3.92;2.00;;;25.00;42.30;;;;;;5020969;28;20110;-44
2021/12/18 13:30:33;;;;;;;4.13;2.05;;;25.00;42.30;;;;;;5023543;28;20034;-44
2021/12/18 13:33:03;;;;;;;3.33;1.95;;;25.00;42.30;;;;;;5023128;28;20033;-44
2021/12/18 13:35:32;;;;;;;3.47;1.80;;;25.00;42.40;;;;;;5011770;28;20392;-44
2021/12/18 13:38:01;;;;;;;3.10;1.88;;;25.00;42.00;;;;;;5003174;28;20022;-44
2021/12/18 13:40:29;;;;;;;3.30;1.75;;;24.90;43.20;;;;;;5003819;28;20018;-45
2021/12/18 13:43:13;;;;;;;3.47;2.03;;;24.90;42.60;;;;;;5003211;28;20061;-44
2021/12/18 13:45:51;;;;;;;3.08;1.70;;;24.90;42.80;;;;;;4999594;28;20030;-44